LIMLLIBD

Guest
Details From LIML - Milano Linate
To LIBD - Bari Palese Macchie
Flight Number -
Tags generated
Created
Modified
Stats Distance 420 nm / 777 km
Max Altitude 35,000 ft / 10,668 m
Waypoints 10
Social Downloads 4
Likes 0
Share VATSIM

Download

Looking for another format? Having issues loading an existing format? Contact us
Advertisement - Login to hide

Notes

Basic altitude profile: - Ascent Rate: 2500ft/min - Ascent Speed: 250kts - Cruise Altitude: 25000ft - Cruise Speed: 420kts - Descent Rate: 1500ft/min - Descent Speed: 250kts Options: - Use NATs: yes - Use PACOTS: yes - Use low airways: yes - Use high airways: yes

Route

LIML LUTOR UW95 URBAN UM872 PES M872 AME LIBD

ID Type Via Altitude Latitude Longitude Leg Dist Tot Dist Heading (true) Name
O LIML APT - 0 ft / 0 m 45.45030˚ 9.27280˚ - 0 nm - Milano Linate
LUTOR FIX - 35,000 ft / 10,668 m 44.48806˚ 11.36083˚ 105 nm 105 nm 122° / 124° -
PELEG FIX UW95 (AWY-HI) 35,000 ft / 10,668 m 44.22778˚ 11.73528˚ 22 nm 128 nm 134° / 134° -
URBAN FIX UW95 (AWY-HI) 35,000 ft / 10,668 m 43.79389˚ 12.34833˚ 37 nm 165 nm 134° / 135° -
GUBIN FIX UM872 (AWY-HI) 35,000 ft / 10,668 m 43.48694˚ 12.77417˚ 26 nm 191 nm 135° / 135° -
LEONN FIX UM872 (AWY-HI) 35,000 ft / 10,668 m 43.29500˚ 13.03667˚ 16 nm 207 nm 135° / 135° -
NORKI FIX UM872 (AWY-HI) 35,000 ft / 10,668 m 43.07972˚ 13.32861˚ 18 nm 226 nm 135° / 135° -
PES VOR UM872 (AWY-HI) 29,900 ft / 9,114 m 42.43611˚ 14.18444˚ 54 nm 280 nm 135° / 136° PESCARA VOR-DME
AME NDB M872 (AWY-LO) 9,500 ft / 2,896 m 41.50000˚ 15.83778˚ 92 nm 372 nm 127° / 128° AMENDOLA NDB
O LIBD APT - 0 ft / 0 m 41.13787˚ 16.75832˚ 46 nm 419 nm 117° / 118° Bari Palese Macchie

Altitude Profile

Advertisement - Login to hide

Weather


0- 5 10 15 20 25 30 35+ Temperature / ° C

Clouds and Precipitation
Forecast for 2017-12-16 12:00 UTC. Updated 29 minutes ago

Ground ~20,000 ft ~40,000 ft Winds

LIML

Details ICAO LIML (LIN)
Name Milano Linate
Region Italy
Timezone Europe/Rome (UTC+1.0)
Stats Elevation 353 ft / 108 m (AMSL)
Location 45.450302° 9.272801°
Runways 2
Magnetic Variation 2.501° E

METAR

LIML 161120Z 36004KT 340V040 9999 FEW030 05/03 Q1009 NOSIG

Decode

TAF

TAF LIML 160500Z 1606/1706 05005KT 7000 NSC

Decode

Departure Runways

ID Width Length Bearing (true) Bearing (mag) Surface Threshold Offset Overrun Length
17 72 ft / 22 m 1,975 ft / 602 m 175.64° 173.14° Asphalt 200 ft / 61 m 0 ft / 0 m
18 197 ft / 60 m 8,017 ft / 2,443 m 175.67° 173.17° Asphalt 0 ft / 0 m 190 ft / 58 m
35 72 ft / 22 m 1,975 ft / 602 m 355.64° 353.14° Asphalt 200 ft / 61 m 0 ft / 0 m
36 197 ft / 60 m 8,017 ft / 2,443 m 355.68° 353.18° Asphalt 0 ft / 0 m 980 ft / 299 m

LIBD

Details ICAO LIBD (BRI)
Name Bari Palese Macchie
Region Italy
Timezone Europe/Rome (UTC+1.0)
Stats Elevation 177 ft / 54 m (AMSL)
Location 41.137865° 16.758318°
Runways 1
Magnetic Variation 3.738° E

METAR

LIBD 161120Z VRB02KT CAVOK 12/04 Q1006

Decode

TAF

TAF LIBD 160500Z 1606/1706 24013KT 9999 SCT030= TAF LIBP 160500Z 1606/1706 23012KT 9999 SCT030 BECMG 1608/1610 VRB05KT BECMG 1616/1618 28012KT TEMPO 1700/1706 4000 TSRA

Decode

Destination Runways

ID Width Length Bearing (true) Bearing (mag) Surface Threshold Offset Overrun Length
07 148 ft / 45 m 9,262 ft / 2,823 m 69.39° 65.65° Asphalt 1,257 ft / 383 m 0 ft / 0 m
25 148 ft / 45 m 9,262 ft / 2,823 m 249.42° 245.68° Asphalt 0 ft / 0 m 194 ft / 59 m

Approach Navaids

Runway Type Ident Frequency Range Bearing (true) Bearing (mag) Slope Elevation
07 Localiser BAP 111.35 MHz 18 nm / 33 km 69.25° 65.51° - 177 ft / 54 m (AMSL)
07 Glidescope BAP 111.35 MHz 10 nm / 19 km 69.25° 65.51° 3.32° 177 ft / 54 m (AMSL)
07 DME BAP 111.35 MHz 18 nm / 33 km - - - 183 ft / 56 m (AMSL)

Popular Alternatives